Terminal Aerodrome Forecast
Issued by NWS

Home | Current Version | Previous Version | Text Only | Print | Product List | Glossary On
Versions: 1 2 3 4 5 6 7 8 9 10 11 12 13 14 15 16 17 18 19 20 21 22 23 24 25 26
000
FTUS45 KSLC 260534
TAFSGU
TAF
KSGU 260534Z 2606/2706 11017G22KT P6SM SKC
     FM260700 11007KT P6SM SCT200
     FM261700 25007KT P6SM SCT200
     FM262000 25010G17KT P6SM FEW100 SCT200
     FM270200 25006KT P6SM SKC
      AMD LTD TO CLD VIS AND WIND=

USA.gov is the U.S. government's official web portal to all federal, state and local government web resources and services.